Time;durP1;ratioP1;P1;durP2;ratioP2;P2;SDS_P1;SDS_P2;PMS_P1;PMS_P2;Temp;Humidity;BMP_temperature;BMP_pressure;BME280_temperature;BME280_humidity;BME280_pressure;Samples;Min_cycle;Max_cycle;Signal;HPM_P1;HPM_P2
2023/01/09 00:01:32;;;;;;;;;;;18.00;55.00;;;;;;10245026;28;932;-73
2023/01/09 00:06:28;;;;;;;;;;;18.00;55.00;;;;;;10245480;28;890;-73
2023/01/09 00:11:23;;;;;;;;;;;18.00;54.90;;;;;;10245778;28;1972;-73
2023/01/09 00:16:18;;;;;;;;;;;18.00;54.70;;;;;;10244516;28;854;-73
2023/01/09 00:21:14;;;;;;;;;;;18.00;54.60;;;;;;10245059;28;932;-73
2023/01/09 00:26:09;;;;;;;;;;;18.10;54.40;;;;;;10244319;28;790;-73
2023/01/09 00:31:05;;;;;;;;;;;18.00;54.20;;;;;;10244703;28;1907;-73
2023/01/09 00:36:00;;;;;;;;;;;18.00;54.20;;;;;;10243905;28;1154;-73
2023/01/09 00:40:55;;;;;;;;;;;18.00;54.30;;;;;;10243989;28;875;-73
2023/01/09 00:45:51;;;;;;;;;;;18.00;54.50;;;;;;10244453;28;901;-73
2023/01/09 00:50:46;;;;;;;;;;;18.00;54.30;;;;;;10243811;28;1914;-73
2023/01/09 00:55:41;;;;;;;;;;;18.00;53.80;;;;;;10243731;28;752;-73
2023/01/09 01:00:37;;;;;;;;;;;18.00;53.90;;;;;;10243016;28;917;-73
2023/01/09 01:10:46;;;;;;;;;;;18.00;53.70;;;;;;10247608;28;1902;-73
2023/01/09 01:15:41;;;;;;;;;;;18.00;53.80;;;;;;10251385;28;911;-73
2023/01/09 01:20:37;;;;;;;;;;;17.90;53.70;;;;;;10251007;28;942;-73
2023/01/09 01:25:32;;;;;;;;;;;18.00;53.90;;;;;;10250271;28;1049;-73
2023/01/09 01:30:27;;;;;;;;;;;18.00;53.80;;;;;;10250560;28;1902;-73
2023/01/09 01:35:23;;;;;;;;;;;17.90;53.70;;;;;;10250462;28;1386;-73
2023/01/09 01:40:18;;;;;;;;;;;17.90;54.00;;;;;;10249754;28;864;-73
2023/01/09 01:45:14;;;;;;;;;;;17.90;54.00;;;;;;10250721;28;933;-73
2023/01/09 01:50:09;;;;;;;;;;;17.90;54.10;;;;;;10249934;28;1985;-73
2023/01/09 01:55:04;;;;;;;;;;;18.00;53.80;;;;;;10249435;28;908;-73
2023/01/09 02:00:01;;;;;;;;;;;18.00;53.60;;;;;;10249632;28;901;-73
2023/01/09 02:04:57;;;;;;;;;;;17.90;53.80;;;;;;10249732;28;907;-73
2023/01/09 02:09:52;;;;;;;;;;;17.90;53.70;;;;;;10249416;28;1969;-74
2023/01/09 02:14:47;;;;;;;;;;;17.90;53.60;;;;;;10249052;28;775;-73
2023/01/09 02:19:43;;;;;;;;;;;17.90;53.30;;;;;;10248981;28;859;-73
2023/01/09 02:24:38;;;;;;;;;;;17.90;53.40;;;;;;10248698;28;747;-73
2023/01/09 02:29:34;;;;;;;;;;;17.90;53.30;;;;;;10248440;28;1906;-73
2023/01/09 02:34:29;;;;;;;;;;;17.90;53.50;;;;;;10248815;28;1245;-73
2023/01/09 02:39:25;;;;;;;;;;;17.90;53.40;;;;;;10248124;28;957;-73
2023/01/09 02:44:20;;;;;;;;;;;17.90;53.20;;;;;;10248526;28;854;-73
2023/01/09 02:49:16;;;;;;;;;;;17.80;53.00;;;;;;10247687;28;1990;-73
2023/01/09 02:54:11;;;;;;;;;;;17.80;53.00;;;;;;10248149;28;857;-73
2023/01/09 02:59:06;;;;;;;;;;;17.90;53.20;;;;;;10247963;28;814;-73
2023/01/09 03:04:02;;;;;;;;;;;17.80;53.20;;;;;;10247163;28;868;-73
2023/01/09 03:08:57;;;;;;;;;;;17.80;53.00;;;;;;10247515;28;1894;-73
2023/01/09 03:13:52;;;;;;;;;;;17.80;53.20;;;;;;10246785;28;913;-73
2023/01/09 03:18:48;;;;;;;;;;;17.80;53.00;;;;;;10246597;28;743;-73
2023/01/09 03:23:43;;;;;;;;;;;17.80;53.30;;;;;;10246411;28;767;-73
2023/01/09 03:28:38;;;;;;;;;;;17.80;52.70;;;;;;10246121;28;1955;-73
2023/01/09 03:33:34;;;;;;;;;;;17.80;52.60;;;;;;10245718;28;1197;-73
2023/01/09 03:38:29;;;;;;;;;;;17.80;52.70;;;;;;10246008;28;799;-73
2023/01/09 03:43:25;;;;;;;;;;;17.80;52.70;;;;;;10246270;28;822;-73
2023/01/09 03:48:20;;;;;;;;;;;17.80;52.90;;;;;;10246145;28;1956;-73
2023/01/09 03:53:15;;;;;;;;;;;17.80;53.10;;;;;;10245337;28;809;-73
2023/01/09 03:58:11;;;;;;;;;;;17.80;52.80;;;;;;10245180;28;830;-73
2023/01/09 04:03:06;;;;;;;;;;;17.80;52.80;;;;;;10245606;28;818;-73
2023/01/09 04:08:01;;;;;;;;;;;17.80;52.70;;;;;;10244761;28;1898;-73
2023/01/09 04:12:57;;;;;;;;;;;17.80;52.70;;;;;;10244716;28;849;-73
2023/01/09 04:17:52;;;;;;;;;;;17.80;52.80;;;;;;10244356;28;889;-73
2023/01/09 04:22:47;;;;;;;;;;;17.80;52.40;;;;;;10244429;28;783;-73
2023/01/09 04:27:43;;;;;;;;;;;17.80;52.50;;;;;;10245043;28;1898;-73
2023/01/09 04:32:38;;;;;;;;;;;17.80;52.50;;;;;;10243967;28;1447;-73
2023/01/09 04:37:35;;;;;;;;;;;17.80;52.50;;;;;;10243717;28;837;-73
2023/01/09 04:42:30;;;;;;;;;;;17.80;52.60;;;;;;10244602;28;842;-73
2023/01/09 04:47:26;;;;;;;;;;;17.80;52.60;;;;;;10252318;28;1910;-73
2023/01/09 04:52:21;;;;;;;;;;;17.80;52.40;;;;;;10252773;28;774;-73
2023/01/09 04:57:17;;;;;;;;;;;17.80;52.60;;;;;;10251983;28;879;-73
2023/01/09 05:02:12;;;;;;;;;;;17.80;52.50;;;;;;10252709;28;1112;-73
2023/01/09 05:07:07;;;;;;;;;;;17.80;52.70;;;;;;10251614;28;1902;-73
2023/01/09 05:12:03;;;;;;;;;;;17.80;52.40;;;;;;10251496;28;799;-73
2023/01/09 05:16:58;;;;;;;;;;;17.90;52.30;;;;;;10251282;28;743;-73
2023/01/09 05:21:53;;;;;;;;;;;17.90;52.30;;;;;;10251646;28;944;-73
2023/01/09 05:26:49;;;;;;;;;;;18.00;52.30;;;;;;10250953;28;885;-73
2023/01/09 05:31:44;;;;;;;;;;;18.00;52.50;;;;;;10250680;28;1969;-73
2023/01/09 05:36:40;;;;;;;;;;;18.00;52.40;;;;;;10252106;28;1269;-73
2023/01/09 05:41:35;;;;;;;;;;;18.00;52.20;;;;;;10250396;28;752;-73
2023/01/09 05:46:30;;;;;;;;;;;18.00;52.10;;;;;;10250773;28;893;-73
2023/01/09 05:51:26;;;;;;;;;;;18.00;52.90;;;;;;10249933;28;2009;-73
2023/01/09 05:56:21;;;;;;;;;;;18.00;52.10;;;;;;10248974;28;913;-73
2023/01/09 06:01:16;;;;;;;;;;;18.10;52.10;;;;;;10249635;28;870;-73
2023/01/09 06:06:12;;;;;;;;;;;18.00;52.30;;;;;;10249485;28;815;-73
2023/01/09 06:11:07;;;;;;;;;;;18.00;52.30;;;;;;10248566;28;1952;-73
2023/01/09 06:16:03;;;;;;;;;;;18.00;52.00;;;;;;10248459;28;873;-73
2023/01/09 06:20:58;;;;;;;;;;;18.00;52.30;;;;;;10249471;28;798;-72
2023/01/09 06:25:53;;;;;;;;;;;18.10;52.30;;;;;;10248616;28;952;-74
2023/01/09 06:30:49;;;;;;;;;;;18.10;52.40;;;;;;10248152;28;1963;-73
2023/01/09 06:35:44;;;;;;;;;;;18.10;52.20;;;;;;10248232;28;1090;-70
2023/01/09 06:40:39;;;;;;;;;;;18.00;51.80;;;;;;10248652;28;885;-74
2023/01/09 06:45:35;;;;;;;;;;;18.00;52.00;;;;;;10247638;28;864;-73
2023/01/09 06:50:30;;;;;;;;;;;18.10;52.00;;;;;;10248020;28;1973;-74
2023/01/09 06:55:25;;;;;;;;;;;18.00;51.90;;;;;;10248089;28;850;-73
2023/01/09 07:00:21;;;;;;;;;;;18.10;52.20;;;;;;10247238;28;814;-74
2023/01/09 07:05:16;;;;;;;;;;;18.10;51.90;;;;;;10247153;28;917;-73
2023/01/09 07:10:12;;;;;;;;;;;18.10;51.90;;;;;;10246637;28;1959;-75
2023/01/09 07:15:07;;;;;;;;;;;18.10;52.30;;;;;;10247085;28;837;-74
2023/01/09 07:20:02;;;;;;;;;;;18.10;52.10;;;;;;10246957;28;833;-73
2023/01/09 07:24:58;;;;;;;;;;;18.10;52.10;;;;;;10246195;28;719;-74
2023/01/09 07:29:53;;;;;;;;;;;18.10;52.90;;;;;;10245910;28;1902;-74
2023/01/09 07:34:50;;;;;;;;;;;18.10;52.10;;;;;;10245874;28;1247;-73
2023/01/09 07:39:45;;;;;;;;;;;18.00;52.30;;;;;;10245555;28;914;-74
2023/01/09 07:44:41;;;;;;;;;;;18.00;52.70;;;;;;10245347;28;859;-74
2023/01/09 07:49:36;;;;;;;;;;;18.10;52.60;;;;;;10245759;28;1976;-72
2023/01/09 07:54:31;;;;;;;;;;;18.10;52.90;;;;;;10243797;28;790;-74
2023/01/09 07:59:28;;;;;;;;;;;18.10;52.70;;;;;;10244864;28;926;-73
2023/01/09 08:04:23;;;;;;;;;;;18.10;52.40;;;;;;10245139;28;1011;-73
2023/01/09 08:09:19;;;;;;;;;;;18.10;52.40;;;;;;10244517;28;1967;-71
2023/01/09 08:14:14;;;;;;;;;;;18.10;52.30;;;;;;10245622;28;886;-73
2023/01/09 08:19:10;;;;;;;;;;;18.00;52.20;;;;;;10244149;28;766;-73
2023/01/09 08:24:06;;;;;;;;;;;18.10;52.40;;;;;;10245290;28;938;-74
2023/01/09 08:29:01;;;;;;;;;;;18.10;52.50;;;;;;10244438;28;1902;-85
2023/01/09 08:33:57;;;;;;;;;;;18.10;52.40;;;;;;10244196;28;1348;-77
2023/01/09 08:38:52;;;;;;;;;;;18.00;52.70;;;;;;10244079;28;779;-78
2023/01/09 08:49:15;;;;;;;;;;;17.70;52.90;;;;;;10210526;28;1910;-78
2023/01/09 08:54:10;;;;;;;;;;;17.60;53.00;;;;;;10243193;28;1275;-78
2023/01/09 08:59:06;;;;;;;;;;;17.60;53.20;;;;;;10243708;28;875;-78
2023/01/09 09:04:01;;;;;;;;;;;17.60;53.20;;;;;;10243596;28;996;-78
2023/01/09 09:09:01;;;;;;;;;;;17.60;52.90;;;;;;10243347;28;1897;-78
2023/01/09 09:13:57;;;;;;;;;;;17.60;53.00;;;;;;10244438;28;821;-78
2023/01/09 09:18:52;;;;;;;;;;;17.60;53.10;;;;;;10242786;28;900;-78
2023/01/09 09:23:47;;;;;;;;;;;17.60;53.20;;;;;;10243875;28;806;-75
2023/01/09 09:28:43;;;;;;;;;;;17.80;53.00;;;;;;10243324;28;1955;-74
2023/01/09 09:33:38;;;;;;;;;;;18.00;52.80;;;;;;10250167;28;1384;-74
2023/01/09 09:38:33;;;;;;;;;;;18.10;52.20;;;;;;10251177;28;819;-73
2023/01/09 09:48:43;;;;;;;;;;;18.10;52.30;;;;;;10250351;28;1985;-75
2023/01/09 09:53:38;;;;;;;;;;;18.20;51.90;;;;;;10249943;28;946;-73
2023/01/09 09:58:33;;;;;;;;;;;18.20;51.90;;;;;;10249797;28;762;-75
2023/01/09 10:03:29;;;;;;;;;;;18.20;52.10;;;;;;10250219;28;790;-75
2023/01/09 10:08:24;;;;;;;;;;;18.20;52.00;;;;;;10249378;28;1902;-75
2023/01/09 10:18:34;;;;;;;;;;;18.20;55.00;;;;;;10249181;28;596;-75
2023/01/09 10:23:29;;;;;;;;;;;18.20;55.20;;;;;;10248851;28;814;-75
2023/01/09 10:28:24;;;;;;;;;;;18.30;55.30;;;;;;10249191;28;1906;-76
2023/01/09 10:33:20;;;;;;;;;;;18.30;56.00;;;;;;10248663;28;1483;-72
2023/01/09 10:38:15;;;;;;;;;;;18.10;56.10;;;;;;10248906;28;798;-71
2023/01/09 10:43:10;;;;;;;;;;;18.20;55.80;;;;;;10247125;28;886;-75
2023/01/09 10:48:06;;;;;;;;;;;18.20;55.60;;;;;;10248437;28;1918;-73
2023/01/09 10:53:01;;;;;;;;;;;18.30;55.10;;;;;;10248473;28;883;-75
2023/01/09 10:57:57;;;;;;;;;;;18.30;54.50;;;;;;10247508;28;952;-76
2023/01/09 11:02:52;;;;;;;;;;;18.30;54.90;;;;;;10247563;28;911;-75
2023/01/09 11:07:48;;;;;;;;;;;18.30;54.60;;;;;;10246952;28;1902;-76
2023/01/09 11:12:43;;;;;;;;;;;18.30;54.40;;;;;;10247866;28;845;-75
2023/01/09 11:17:38;;;;;;;;;;;18.20;54.50;;;;;;10246525;28;902;-75
2023/01/09 11:22:34;;;;;;;;;;;18.30;54.60;;;;;;10245694;28;819;-75
2023/01/09 11:27:29;;;;;;;;;;;18.30;54.50;;;;;;10246669;28;1902;-75
2023/01/09 11:32:24;;;;;;;;;;;18.30;54.20;;;;;;10245639;28;1116;-71
2023/01/09 11:37:20;;;;;;;;;;;18.20;54.60;;;;;;10245443;28;1243;-71
2023/01/09 11:42:15;;;;;;;;;;;18.20;54.10;;;;;;10246878;28;901;-72
2023/01/09 11:47:11;;;;;;;;;;;18.20;53.90;;;;;;10245853;28;1906;-73
2023/01/09 11:52:06;;;;;;;;;;;18.20;53.60;;;;;;10244575;28;798;-73
2023/01/09 11:57:01;;;;;;;;;;;18.20;54.40;;;;;;10245041;28;868;-72
2023/01/09 12:01:57;;;;;;;;;;;18.20;53.40;;;;;;10244880;28;941;-73
2023/01/09 12:06:52;;;;;;;;;;;18.20;53.60;;;;;;10244671;28;817;-74
2023/01/09 12:11:47;;;;;;;;;;;18.20;53.70;;;;;;10245171;28;1910;-72
2023/01/09 12:16:43;;;;;;;;;;;18.20;53.90;;;;;;10244283;28;892;-73
2023/01/09 12:21:38;;;;;;;;;;;18.20;53.40;;;;;;10243665;28;828;-73
2023/01/09 12:26:33;;;;;;;;;;;18.30;53.90;;;;;;10244625;28;850;-73
2023/01/09 12:31:29;;;;;;;;;;;18.30;53.90;;;;;;10240370;28;1910;-73
2023/01/09 12:36:24;;;;;;;;;;;18.30;54.30;;;;;;10242503;28;1331;-73
2023/01/09 12:41:21;;;;;;;;;;;18.30;54.40;;;;;;10243018;28;851;-74
2023/01/09 12:46:17;;;;;;;;;;;18.30;53.90;;;;;;10243452;28;907;-73
2023/01/09 12:51:12;;;;;;;;;;;18.20;54.10;;;;;;10220578;28;1910;-73
2023/01/09 12:56:07;;;;;;;;;;;18.20;54.10;;;;;;10203768;28;849;-73
2023/01/09 13:01:03;;;;;;;;;;;18.20;53.90;;;;;;10202040;28;997;-73
2023/01/09 13:05:58;;;;;;;;;;;18.30;53.60;;;;;;10208040;28;777;-72
2023/01/09 13:10:53;;;;;;;;;;;18.30;53.60;;;;;;10210059;28;1970;-72
2023/01/09 13:15:49;;;;;;;;;;;18.30;53.40;;;;;;10244700;28;846;-74
2023/01/09 13:20:44;;;;;;;;;;;18.20;53.30;;;;;;10250103;28;909;-72
2023/01/09 13:25:40;;;;;;;;;;;18.20;53.20;;;;;;10250728;28;845;-73
2023/01/09 13:30:35;;;;;;;;;;;18.20;52.80;;;;;;10250397;28;1914;-73
2023/01/09 13:35:31;;;;;;;;;;;18.30;52.60;;;;;;10250556;28;1216;-71
2023/01/09 13:40:26;;;;;;;;;;;18.30;52.70;;;;;;10250150;28;779;-72
2023/01/09 13:45:22;;;;;;;;;;;18.30;52.70;;;;;;10249819;28;844;-72
2023/01/09 13:50:21;;;;;;;;;;;18.30;53.20;;;;;;10249062;28;1906;-73
2023/01/09 13:55:16;;;;;;;;;;;18.20;52.90;;;;;;10249568;28;794;-71
2023/01/09 14:00:11;;;;;;;;;;;18.30;52.70;;;;;;10248747;28;1054;-74
2023/01/09 14:05:07;;;;;;;;;;;18.20;52.90;;;;;;10249559;28;912;-74
2023/01/09 14:10:02;;;;;;;;;;;18.30;52.70;;;;;;10248498;28;1902;-75
2023/01/09 14:14:58;;;;;;;;;;;18.30;53.00;;;;;;10248668;28;810;-73
2023/01/09 14:19:53;;;;;;;;;;;18.30;53.10;;;;;;10247974;28;837;-74
2023/01/09 14:24:51;;;;;;;;;;;18.30;53.00;;;;;;10248881;28;826;-73
2023/01/09 14:29:46;;;;;;;;;;;18.30;52.80;;;;;;10248735;28;1902;-74
2023/01/09 14:34:42;;;;;;;;;;;18.30;53.00;;;;;;10247965;28;1296;-73
2023/01/09 14:39:37;;;;;;;;;;;18.30;53.10;;;;;;10248050;28;922;-73
2023/01/09 14:44:32;;;;;;;;;;;18.20;53.20;;;;;;10248518;28;849;-73
2023/01/09 14:49:28;;;;;;;;;;;18.30;53.10;;;;;;10248204;28;1914;-73
2023/01/09 14:54:23;;;;;;;;;;;18.30;52.80;;;;;;10247496;28;964;-73
2023/01/09 14:59:19;;;;;;;;;;;18.30;52.70;;;;;;10247929;28;909;-73
2023/01/09 15:04:14;;;;;;;;;;;18.30;52.60;;;;;;10247956;28;764;-72
2023/01/09 15:09:09;;;;;;;;;;;18.30;52.70;;;;;;10243340;28;1906;-73
2023/01/09 15:14:05;;;;;;;;;;;18.30;52.80;;;;;;10246523;28;862;-73
2023/01/09 15:19:00;;;;;;;;;;;18.30;52.80;;;;;;10246587;28;893;-72
2023/01/09 15:23:55;;;;;;;;;;;18.30;52.90;;;;;;10245830;28;991;-72
2023/01/09 15:28:51;;;;;;;;;;;18.30;53.00;;;;;;10245603;28;1894;-73
2023/01/09 15:33:46;;;;;;;;;;;18.30;53.00;;;;;;10245971;28;1220;-73
2023/01/09 15:38:42;;;;;;;;;;;18.30;53.20;;;;;;10246006;28;833;-73
2023/01/09 15:43:37;;;;;;;;;;;18.30;53.30;;;;;;10246753;28;853;-72
2023/01/09 15:48:33;;;;;;;;;;;18.30;53.50;;;;;;10245063;28;1914;-73
2023/01/09 15:53:28;;;;;;;;;;;18.30;53.80;;;;;;10244915;28;869;-73
2023/01/09 15:58:23;;;;;;;;;;;18.30;53.50;;;;;;10245297;28;856;-73
2023/01/09 16:03:19;;;;;;;;;;;18.30;53.50;;;;;;10244300;28;842;-73
2023/01/09 16:08:14;;;;;;;;;;;18.30;53.20;;;;;;10245513;28;1883;-73
2023/01/09 16:13:10;;;;;;;;;;;18.40;53.10;;;;;;10244813;28;822;-73
2023/01/09 16:18:05;;;;;;;;;;;18.40;53.00;;;;;;10244707;28;878;-73
2023/01/09 16:23:01;;;;;;;;;;;18.40;53.00;;;;;;10244585;28;890;-73
2023/01/09 16:27:57;;;;;;;;;;;18.30;53.70;;;;;;10245012;28;1898;-73
2023/01/09 16:32:52;;;;;;;;;;;18.30;53.10;;;;;;10244291;28;1176;-73
2023/01/09 16:37:47;;;;;;;;;;;18.20;53.00;;;;;;10244227;28;834;-73
2023/01/09 16:47:57;;;;;;;;;;;18.30;52.60;;;;;;10243527;28;1966;-73
2023/01/09 16:52:52;;;;;;;;;;;18.30;52.60;;;;;;10244625;28;902;-73
2023/01/09 16:57:48;;;;;;;;;;;18.30;52.60;;;;;;10243799;28;876;-73
2023/01/09 17:02:43;;;;;;;;;;;18.30;52.50;;;;;;10244435;28;1049;-73
2023/01/09 17:07:38;;;;;;;;;;;18.30;52.60;;;;;;10242915;28;1965;-73
2023/01/09 17:12:34;;;;;;;;;;;18.30;52.30;;;;;;10243524;28;786;-71
2023/01/09 17:17:29;;;;;;;;;;;18.20;52.50;;;;;;10243473;28;768;-71
2023/01/09 17:22:25;;;;;;;;;;;18.20;52.50;;;;;;10243379;28;884;-71
2023/01/09 17:32:34;;;;;;;;;;;18.20;52.50;;;;;;10243587;28;1443;-71
2023/01/09 17:37:30;;;;;;;;;;;18.20;52.30;;;;;;10243152;28;818;-74
2023/01/09 17:42:25;;;;;;;;;;;18.20;52.40;;;;;;10244150;28;842;-72
2023/01/09 17:47:20;;;;;;;;;;;18.20;52.40;;;;;;10242889;28;830;-72
2023/01/09 17:52:16;;;;;;;;;;;18.30;52.30;;;;;;10245819;28;1906;-72
2023/01/09 17:57:11;;;;;;;;;;;18.30;52.70;;;;;;10250999;28;910;-71
2023/01/09 18:02:06;;;;;;;;;;;18.30;52.30;;;;;;10249806;28;869;-72
2023/01/09 18:07:02;;;;;;;;;;;18.30;52.20;;;;;;10249557;28;925;-72
2023/01/09 18:11:57;;;;;;;;;;;18.40;52.40;;;;;;10249351;28;1894;-72
2023/01/09 18:16:52;;;;;;;;;;;18.30;52.30;;;;;;10249212;28;763;-72
2023/01/09 18:21:48;;;;;;;;;;;18.30;52.40;;;;;;10249055;28;862;-72
2023/01/09 18:26:43;;;;;;;;;;;18.30;52.40;;;;;;10249040;28;886;-72
2023/01/09 18:31:39;;;;;;;;;;;18.30;52.40;;;;;;10248491;28;1973;-72
2023/01/09 18:36:34;;;;;;;;;;;18.30;52.50;;;;;;10249068;28;1313;-72
2023/01/09 18:41:29;;;;;;;;;;;18.30;52.50;;;;;;10248353;28;830;-72
2023/01/09 18:46:25;;;;;;;;;;;18.30;52.40;;;;;;10247560;28;912;-72
2023/01/09 18:51:20;;;;;;;;;;;18.30;52.90;;;;;;10247313;28;1914;-72
2023/01/09 18:56:16;;;;;;;;;;;18.30;52.40;;;;;;10247783;28;757;-72
2023/01/09 19:01:13;;;;;;;;;;;18.10;52.70;;;;;;10247268;28;982;-73
2023/01/09 19:06:08;;;;;;;;;;;17.80;53.30;;;;;;10247419;28;914;-73
2023/01/09 19:11:03;;;;;;;;;;;17.70;53.60;;;;;;10247058;28;1963;-72
2023/01/09 19:15:59;;;;;;;;;;;17.60;53.70;;;;;;10246963;28;806;-72
2023/01/09 19:20:54;;;;;;;;;;;17.60;53.80;;;;;;10247538;28;864;-72
2023/01/09 19:25:50;;;;;;;;;;;17.50;53.70;;;;;;10245999;28;1603;-72
2023/01/09 19:30:46;;;;;;;;;;;17.50;53.70;;;;;;10246349;28;1969;-72
2023/01/09 19:35:42;;;;;;;;;;;17.50;53.50;;;;;;10246345;28;1922;-72
2023/01/09 19:40:38;;;;;;;;;;;17.50;53.50;;;;;;10246909;28;789;-72
2023/01/09 19:45:33;;;;;;;;;;;17.50;53.50;;;;;;10245809;28;798;-72
2023/01/09 19:50:29;;;;;;;;;;;17.50;53.40;;;;;;10246151;28;1914;-72
2023/01/09 19:55:24;;;;;;;;;;;17.50;53.50;;;;;;10246981;28;850;-72
2023/01/09 20:00:19;;;;;;;;;;;17.50;53.40;;;;;;10246526;28;932;-72
2023/01/09 20:05:15;;;;;;;;;;;17.50;53.50;;;;;;10245036;28;973;-73
2023/01/09 20:10:10;;;;;;;;;;;17.50;53.40;;;;;;10246461;28;1973;-73
2023/01/09 20:15:08;;;;;;;;;;;17.50;53.50;;;;;;10244265;28;794;-73
2023/01/09 20:20:04;;;;;;;;;;;17.50;53.30;;;;;;10244771;28;881;-73
2023/01/09 20:24:59;;;;;;;;;;;17.50;53.40;;;;;;10244015;28;1206;-73
2023/01/09 20:29:54;;;;;;;;;;;17.50;53.50;;;;;;10244367;28;1906;-73
2023/01/09 20:34:50;;;;;;;;;;;17.50;53.40;;;;;;10245093;28;1133;-73
2023/01/09 20:39:46;;;;;;;;;;;17.50;53.40;;;;;;10244190;28;885;-73
2023/01/09 20:44:41;;;;;;;;;;;17.50;53.30;;;;;;10244050;28;949;-73
2023/01/09 20:49:36;;;;;;;;;;;17.50;53.30;;;;;;10244507;28;1914;-73
2023/01/09 20:54:32;;;;;;;;;;;17.40;53.20;;;;;;10244487;28;829;-73
2023/01/09 20:59:27;;;;;;;;;;;17.40;53.00;;;;;;10243214;28;900;-73
2023/01/09 21:04:22;;;;;;;;;;;17.40;53.00;;;;;;10244401;28;946;-73
2023/01/09 21:09:19;;;;;;;;;;;17.40;53.10;;;;;;10244141;28;1965;-73
2023/01/09 21:14:14;;;;;;;;;;;17.40;53.00;;;;;;10243525;28;865;-73
2023/01/09 21:19:09;;;;;;;;;;;17.40;53.00;;;;;;10244011;28;838;-73
2023/01/09 21:24:06;;;;;;;;;;;17.30;53.10;;;;;;10243334;28;748;-73
2023/01/09 21:29:07;;;;;;;;;;;17.40;53.30;;;;;;10251004;28;1902;-70
2023/01/09 21:34:03;;;;;;;;;;;17.40;53.30;;;;;;10251489;28;1148;-72
2023/01/09 21:38:58;;;;;;;;;;;17.60;53.10;;;;;;10250701;28;914;-73
2023/01/09 21:49:08;;;;;;;;;;;17.80;52.80;;;;;;10250607;28;1906;-73
2023/01/09 21:54:03;;;;;;;;;;;17.80;52.90;;;;;;10250301;28;957;-73
2023/01/09 21:58:58;;;;;;;;;;;17.80;52.90;;;;;;10249992;28;879;-73
2023/01/09 22:03:54;;;;;;;;;;;17.90;52.90;;;;;;10249816;28;854;-73
2023/01/09 22:08:49;;;;;;;;;;;17.80;52.80;;;;;;10250139;28;2226;-73
2023/01/09 22:13:45;;;;;;;;;;;17.80;53.00;;;;;;10249444;28;924;-73
2023/01/09 22:18:40;;;;;;;;;;;17.80;53.20;;;;;;10249304;28;941;-73
2023/01/09 22:23:35;;;;;;;;;;;17.80;53.00;;;;;;10249108;28;876;-73
2023/01/09 22:28:31;;;;;;;;;;;17.80;53.10;;;;;;10249445;28;1910;-73
2023/01/09 22:33:27;;;;;;;;;;;17.80;53.10;;;;;;10249251;28;1291;-73
2023/01/09 22:38:22;;;;;;;;;;;17.80;53.20;;;;;;10247955;28;814;-73
2023/01/09 22:43:17;;;;;;;;;;;17.80;53.20;;;;;;10248936;28;952;-73
2023/01/09 22:48:13;;;;;;;;;;;17.70;53.10;;;;;;10247535;28;1910;-73
2023/01/09 22:53:08;;;;;;;;;;;17.70;53.20;;;;;;10247959;28;818;-73
2023/01/09 22:58:04;;;;;;;;;;;17.70;53.20;;;;;;10248392;28;871;-73
2023/01/09 23:02:59;;;;;;;;;;;17.70;53.10;;;;;;10247954;28;1025;-73
2023/01/09 23:07:54;;;;;;;;;;;17.70;53.10;;;;;;10247310;28;1965;-73
2023/01/09 23:12:50;;;;;;;;;;;17.70;53.20;;;;;;10247170;28;1008;-73
2023/01/09 23:17:45;;;;;;;;;;;17.70;53.20;;;;;;10246980;28;779;-73
2023/01/09 23:22:40;;;;;;;;;;;17.70;53.10;;;;;;10246823;28;822;-73
2023/01/09 23:27:36;;;;;;;;;;;17.70;53.00;;;;;;10246512;28;1963;-73
2023/01/09 23:32:31;;;;;;;;;;;17.70;52.90;;;;;;10247121;28;1500;-73
2023/01/09 23:37:26;;;;;;;;;;;17.70;53.00;;;;;;10247040;28;984;-73
2023/01/09 23:47:36;;;;;;;;;;;17.80;52.80;;;;;;10245665;28;1910;-73
2023/01/09 23:52:31;;;;;;;;;;;17.80;52.90;;;;;;10245130;28;937;-73
2023/01/09 23:57:27;;;;;;;;;;;17.80;52.90;;;;;;10245511;28;782;-73
